createdAt,value
2022-12-05T00:01:14.531Z,101454.56
2022-12-05T00:03:43.919Z,101450.22
2022-12-05T00:06:11.594Z,101454.44
2022-12-05T00:08:39.608Z,101460.47
2022-12-05T00:11:12.613Z,101459.63
2022-12-05T00:13:41.264Z,101452.78
2022-12-05T00:16:10.429Z,101463.16
2022-12-05T00:18:38.292Z,101462.44
2022-12-05T00:21:08.169Z,101457.53
2022-12-05T00:23:35.648Z,101447.97
2022-12-05T00:26:03.748Z,101460.47
2022-12-05T00:28:32.347Z,101442.84
2022-12-05T00:31:03.486Z,101450.88
2022-12-05T00:33:30.943Z,101442.16
2022-12-05T00:36:02.927Z,101447.09
2022-12-05T00:38:31.798Z,101445.16
2022-12-05T00:41:03.871Z,101442.16
2022-12-05T00:43:31.427Z,101443.06
2022-12-05T00:46:02.232Z,101443.63
2022-12-05T00:48:30.802Z,101439.81
2022-12-05T00:51:02.909Z,101442.56
2022-12-05T00:53:32.220Z,101442.19
2022-12-05T00:56:03.563Z,101443.00
2022-12-05T00:58:31.630Z,101447.75
2022-12-05T01:00:59.419Z,101444.94
2022-12-05T01:03:27.010Z,101444.03
2022-12-05T01:05:54.580Z,101435.97
2022-12-05T01:08:22.047Z,101438.59
2022-12-05T01:10:55.140Z,101442.72
2022-12-05T01:13:22.998Z,101432.13
2022-12-05T01:15:50.528Z,101447.97
2022-12-05T01:18:18.635Z,101448.50
2022-12-05T01:20:47.084Z,101441.66
2022-12-05T01:23:15.126Z,101432.00
2022-12-05T01:25:43.319Z,101431.53
2022-12-05T01:28:12.331Z,101436.00
2022-12-05T01:30:40.587Z,101430.06
2022-12-05T01:33:08.915Z,101435.38
2022-12-05T01:35:37.624Z,101427.59
2022-12-05T01:38:05.808Z,101426.03
2022-12-05T01:40:35.828Z,101425.50
2022-12-05T01:43:03.885Z,101433.00
2022-12-05T01:45:37.459Z,101431.19
2022-12-05T01:48:07.807Z,101430.78
2022-12-05T01:50:35.871Z,101431.03
2022-12-05T01:53:03.672Z,101426.69
2022-12-05T01:55:31.200Z,101424.31
2022-12-05T01:57:58.847Z,101429.56
2022-12-05T02:00:26.470Z,101429.34
2022-12-05T02:02:57.318Z,101420.28
2022-12-05T02:05:28.651Z,101413.16
2022-12-05T02:07:56.381Z,101415.53
2022-12-05T02:10:24.062Z,101407.38
2022-12-05T02:12:51.894Z,101419.66
2022-12-05T02:15:28.246Z,101402.13
2022-12-05T02:18:05.639Z,101402.16
2022-12-05T02:20:45.951Z,101403.53
2022-12-05T02:23:46.047Z,101404.16
2022-12-05T02:26:34.208Z,101401.78
2022-12-05T02:29:32.581Z,101399.94
2022-12-05T02:32:06.835Z,101399.41
2022-12-05T02:34:38.824Z,101393.81
2022-12-05T02:37:11.354Z,101393.59
2022-12-05T02:39:42.464Z,101398.41
2022-12-05T02:42:11.946Z,101392.63
2022-12-05T02:44:44.267Z,101398.22
2022-12-05T02:47:14.663Z,101387.34
2022-12-05T02:49:43.119Z,101395.84
2022-12-05T02:52:14.162Z,101398.16
2022-12-05T02:54:45.498Z,101399.44
2022-12-05T02:57:13.394Z,101398.16
2022-12-05T02:59:40.950Z,101391.06
2022-12-05T03:02:09.685Z,101397.50
2022-12-05T03:04:38.645Z,101391.38
2022-12-05T03:07:08.234Z,101390.63
2022-12-05T03:09:38.258Z,101394.94
2022-12-05T03:12:10.686Z,101394.31
2022-12-05T03:14:41.535Z,101396.78
2022-12-05T03:17:12.801Z,101399.34
2022-12-05T03:19:46.637Z,101382.47
2022-12-05T03:22:16.985Z,101391.47
2022-12-05T03:24:44.499Z,101389.44
2022-12-05T03:27:16.846Z,101392.28
2022-12-05T03:29:48.964Z,101390.34
2022-12-05T03:32:20.947Z,101395.09
2022-12-05T03:34:55.902Z,101397.06
2022-12-05T03:37:28.431Z,101387.25
2022-12-05T03:40:04.942Z,101379.53
2022-12-05T03:42:34.265Z,101392.56
2022-12-05T03:45:05.214Z,101387.59
2022-12-05T03:47:39.021Z,101386.50
2022-12-05T03:50:11.630Z,101388.88
2022-12-05T03:53:17.491Z,101383.38
2022-12-05T03:55:34.326Z,101392.72
2022-12-05T03:58:03.599Z,101383.28
2022-12-05T04:00:35.235Z,101391.25
2022-12-05T04:03:06.807Z,101383.00
2022-12-05T04:05:40.062Z,101377.88
2022-12-05T04:08:09.337Z,101377.41
2022-12-05T04:10:48.402Z,101375.03
2022-12-05T04:13:19.771Z,101384.13
2022-12-05T04:16:08.273Z,101381.44
2022-12-05T04:18:37.588Z,101380.44
2022-12-05T04:21:24.672Z,101380.28
2022-12-05T04:24:13.535Z,101363.09
2022-12-05T04:26:44.366Z,101364.75
2022-12-05T04:29:18.551Z,101359.81
2022-12-05T04:31:50.767Z,101363.75
2022-12-05T04:34:19.588Z,101364.22
2022-12-05T04:36:52.981Z,101366.31
2022-12-05T04:39:23.431Z,101375.31
2022-12-05T04:41:54.215Z,101376.16
2022-12-05T04:44:24.968Z,101372.66
2022-12-05T04:46:54.705Z,101382.09
2022-12-05T04:49:24.045Z,101389.44
2022-12-05T04:51:56.638Z,101396.31
2022-12-05T04:54:27.238Z,101397.34
2022-12-05T04:57:01.117Z,101398.69
2022-12-05T04:59:29.003Z,101402.28
2022-12-05T05:01:59.524Z,101402.38
2022-12-05T05:04:30.419Z,101403.84
2022-12-05T05:06:59.290Z,101399.91
2022-12-05T05:09:26.987Z,101410.41
2022-12-05T05:11:54.479Z,101407.03
2022-12-05T05:14:21.936Z,101401.88
2022-12-05T05:16:49.387Z,101388.25
2022-12-05T05:19:16.879Z,101392.00
2022-12-05T05:21:44.415Z,101394.28
2022-12-05T05:24:13.706Z,101391.75
2022-12-05T05:26:43.264Z,101393.84
2022-12-05T05:29:11.003Z,101392.44
2022-12-05T05:31:39.364Z,101392.38
2022-12-05T05:34:09.653Z,101397.13
2022-12-05T05:36:37.676Z,101399.78
2022-12-05T05:39:06.709Z,101397.97
2022-12-05T05:41:37.027Z,101396.50
2022-12-05T05:44:05.472Z,101394.41
2022-12-05T05:46:35.089Z,101395.56
2022-12-05T05:49:02.760Z,101391.91
2022-12-05T05:51:30.541Z,101398.31
2022-12-05T05:53:59.118Z,101405.84
2022-12-05T05:56:26.775Z,101398.88
2022-12-05T05:59:00.415Z,101397.13
2022-12-05T06:01:28.536Z,101393.09
2022-12-05T06:03:56.377Z,101393.66
2022-12-05T06:06:24.656Z,101397.59
2022-12-05T06:08:52.171Z,101397.97
2022-12-05T06:11:25.729Z,101400.34
2022-12-05T06:13:53.762Z,101397.88
2022-12-05T06:16:22.690Z,101401.81
2022-12-05T06:18:50.250Z,101396.41
2022-12-05T06:21:17.820Z,101406.84
2022-12-05T06:23:45.619Z,101405.13
2022-12-05T06:26:14.442Z,101408.06
2022-12-05T06:28:42.373Z,101407.59
2022-12-05T06:31:10.436Z,101411.34
2022-12-05T06:33:39.677Z,101407.41
2022-12-05T06:36:09.674Z,101409.06
2022-12-05T06:38:41.839Z,101410.72
2022-12-05T06:41:12.047Z,101410.69
2022-12-05T06:43:39.506Z,101411.63
2022-12-05T06:46:07.890Z,101411.72
2022-12-05T06:48:35.660Z,101416.66
2022-12-05T06:51:06.853Z,101404.47
2022-12-05T06:53:34.314Z,101412.28
2022-12-05T06:56:03.075Z,101411.34
2022-12-05T06:58:31.019Z,101408.06
2022-12-05T07:01:15.988Z,101412.34
2022-12-05T07:03:44.276Z,101413.28
2022-12-05T07:06:13.175Z,101419.66
2022-12-05T07:08:41.346Z,101417.28
2022-12-05T07:11:09.427Z,101417.91
2022-12-05T07:13:36.883Z,101417.50
2022-12-05T07:16:07.028Z,101421.53
2022-12-05T07:18:34.858Z,101422.53
2022-12-05T07:21:11.619Z,101418.09
2022-12-05T07:23:41.517Z,101413.28
2022-12-05T07:26:10.546Z,101418.75
2022-12-05T07:28:38.062Z,101417.06
2022-12-05T07:31:07.667Z,101414.22
2022-12-05T07:33:35.278Z,101413.94
2022-12-05T07:36:03.642Z,101415.47
2022-12-05T07:38:31.894Z,101409.06
2022-12-05T07:41:00.771Z,101401.25
2022-12-05T07:43:28.212Z,101413.00
2022-12-05T07:45:55.735Z,101410.22
2022-12-05T07:48:23.278Z,101413.97
2022-12-05T07:50:50.712Z,101415.53
2022-12-05T07:53:18.170Z,101416.34
2022-12-05T07:55:45.644Z,101407.00
2022-12-05T07:58:14.475Z,101416.91
2022-12-05T08:00:41.932Z,101418.97
2022-12-05T08:03:09.408Z,101419.25
2022-12-05T08:05:37.615Z,101413.81
2022-12-05T08:08:06.854Z,101416.44
2022-12-05T08:10:35.217Z,101418.41
2022-12-05T08:13:02.695Z,101421.06
2022-12-05T08:15:31.660Z,101424.47
2022-12-05T08:17:59.112Z,101418.47
2022-12-05T08:20:26.622Z,101428.78
2022-12-05T08:22:54.378Z,101430.50
2022-12-05T08:25:22.101Z,101422.53
2022-12-05T08:27:49.570Z,101426.09
2022-12-05T08:30:17.279Z,101428.69
2022-12-05T08:32:46.130Z,101435.97
2022-12-05T08:35:13.684Z,101437.94
2022-12-05T08:37:41.143Z,101435.50
2022-12-05T08:40:09.603Z,101436.34
2022-12-05T08:42:37.171Z,101436.41
2022-12-05T08:45:05.143Z,101438.91
2022-12-05T08:47:32.734Z,101440.03
2022-12-05T08:50:01.571Z,101442.97
2022-12-05T08:52:29.169Z,101442.53
2022-12-05T08:54:56.916Z,101441.97
2022-12-05T08:57:24.647Z,101437.38
2022-12-05T08:59:52.284Z,101443.53
2022-12-05T09:02:19.830Z,101446.81
2022-12-05T09:04:53.995Z,101435.09
2022-12-05T09:07:23.290Z,101450.31
2022-12-05T09:09:50.879Z,101447.56
2022-12-05T09:12:18.340Z,101448.56
2022-12-05T09:14:45.767Z,101450.59
2022-12-05T09:17:13.201Z,101446.66
2022-12-05T09:19:40.660Z,101447.66
2022-12-05T09:22:08.112Z,101458.31
2022-12-05T09:24:37.061Z,101451.63
2022-12-05T09:27:04.682Z,101446.84
2022-12-05T09:29:32.451Z,101448.69
2022-12-05T09:31:59.934Z,101440.88
2022-12-05T09:34:27.499Z,101443.53
2022-12-05T09:37:10.214Z,101441.59
2022-12-05T09:39:45.368Z,101444.16
2022-12-05T09:42:31.180Z,101435.22
2022-12-05T09:45:18.458Z,101443.75
2022-12-05T09:47:51.019Z,101439.47
2022-12-05T09:50:21.834Z,101440.03
2022-12-05T09:53:12.546Z,101435.34
2022-12-05T09:55:47.150Z,101434.53
2022-12-05T09:58:23.914Z,101435.84
2022-12-05T10:00:54.599Z,101426.19
2022-12-05T10:03:26.913Z,101429.47
2022-12-05T10:06:03.676Z,101425.47
2022-12-05T10:08:34.706Z,101424.34
2022-12-05T10:11:06.718Z,101429.78
2022-12-05T10:13:44.560Z,101424.19
2022-12-05T10:16:14.343Z,101423.94
2022-12-05T10:18:44.667Z,101415.13
2022-12-05T10:21:17.055Z,101416.94
2022-12-05T10:23:59.600Z,101415.00
2022-12-05T10:26:30.438Z,101409.31
2022-12-05T10:29:01.953Z,101417.22
2022-12-05T10:31:32.349Z,101416.31
2022-12-05T10:34:05.371Z,101417.78
2022-12-05T10:36:33.167Z,101424.56
2022-12-05T10:39:00.642Z,101415.28
2022-12-05T10:41:29.782Z,101415.38
2022-12-05T10:43:59.547Z,101418.06
2022-12-05T10:46:27.292Z,101405.50
2022-12-05T10:48:54.847Z,101405.84
2022-12-05T10:51:32.509Z,101405.84
2022-12-05T10:54:06.442Z,101411.72
2022-12-05T10:56:43.767Z,101408.88
2022-12-05T10:59:13.223Z,101408.41
2022-12-05T11:01:46.324Z,101406.22
2022-12-05T11:04:29.026Z,101402.09
2022-12-05T11:07:01.629Z,101399.63
2022-12-05T11:09:30.795Z,101398.59
2022-12-05T11:12:04.937Z,101394.09
2022-12-05T11:14:34.230Z,101396.31
2022-12-05T11:17:03.130Z,101398.31
2022-12-05T11:19:32.774Z,101398.53
2022-12-05T11:22:00.973Z,101386.41
2022-12-05T11:24:29.892Z,101388.53
2022-12-05T11:26:57.884Z,101387.63
2022-12-05T11:29:35.554Z,101389.16
2022-12-05T11:32:03.879Z,101386.31
2022-12-05T11:34:37.283Z,101382.63
2022-12-05T11:37:10.767Z,101382.63
2022-12-05T11:39:38.331Z,101375.03
2022-12-05T11:42:22.383Z,101378.06
2022-12-05T11:45:15.787Z,101370.72
2022-12-05T11:47:52.770Z,101376.03
2022-12-05T11:50:29.666Z,101376.50
2022-12-05T11:53:07.820Z,101378.97
2022-12-05T11:55:40.550Z,101378.34
2022-12-05T11:58:20.257Z,101376.13
2022-12-05T12:00:57.617Z,101370.53
2022-12-05T12:03:56.390Z,101367.69
2022-12-05T12:06:28.659Z,101373.47
2022-12-05T12:09:08.884Z,101368.31
2022-12-05T12:11:39.726Z,101374.56
2022-12-05T12:14:14.227Z,101365.91
2022-12-05T12:16:51.175Z,101367.56
2022-12-05T12:19:33.471Z,101371.81
2022-12-05T12:22:27.535Z,101370.88
2022-12-05T12:25:04.970Z,101360.72
2022-12-05T12:27:43.391Z,101369.06
2022-12-05T12:30:14.657Z,101364.13
2022-12-05T12:32:51.662Z,101364.22
2022-12-05T12:35:28.208Z,101356.28
2022-12-05T12:38:05.255Z,101363.03
2022-12-05T12:40:36.876Z,101359.69
2022-12-05T12:43:30.929Z,101358.91
2022-12-05T12:46:17.909Z,101358.41
2022-12-05T12:48:56.747Z,101356.13
2022-12-05T12:51:24.277Z,101354.13
2022-12-05T12:54:05.237Z,101359.69
2022-12-05T12:56:40.278Z,101357.59
2022-12-05T12:59:20.141Z,101350.88
2022-12-05T13:01:52.525Z,101354.66
2022-12-05T13:04:25.075Z,101365.69
2022-12-05T13:06:57.332Z,101358.50
2022-12-05T13:09:27.667Z,101361.00
2022-12-05T13:11:56.097Z,101359.25
2022-12-05T13:14:26.530Z,101350.16
2022-12-05T13:16:55.716Z,101360.91
2022-12-05T13:19:29.360Z,101358.97
2022-12-05T13:21:58.330Z,101360.19
2022-12-05T13:24:27.663Z,101359.34
2022-12-05T13:26:59.087Z,101357.41
2022-12-05T13:29:32.283Z,101360.91
2022-12-05T13:32:01.345Z,101351.84
2022-12-05T13:34:46.287Z,101353.94
2022-12-05T13:37:38.175Z,101355.84
2022-12-05T13:40:24.386Z,101356.25
2022-12-05T13:43:00.626Z,101363.28
2022-12-05T13:45:28.431Z,101352.66
2022-12-05T13:48:07.498Z,101358.25
2022-12-05T13:50:43.882Z,101362.63
2022-12-05T13:53:29.663Z,101360.28
2022-12-05T13:56:00.171Z,101358.31
2022-12-05T13:58:48.580Z,101364.84
2022-12-05T14:01:53.723Z,101361.75
2022-12-05T14:04:50.873Z,101365.84
2022-12-05T14:07:39.602Z,101365.66
2022-12-05T14:10:08.838Z,101362.81
2022-12-05T14:12:54.847Z,101353.19
2022-12-05T14:15:34.205Z,101352.00
2022-12-05T14:18:04.872Z,101354.72
2022-12-05T14:20:49.820Z,101354.06
2022-12-05T14:23:45.291Z,101363.28
2022-12-05T14:26:23.735Z,101352.16
2022-12-05T14:29:02.911Z,101357.41
2022-12-05T14:31:44.987Z,101360.69
2022-12-05T14:34:24.719Z,101355.53
2022-12-05T14:37:04.053Z,101360.41
2022-12-05T14:39:37.111Z,101357.19
2022-12-05T14:42:08.587Z,101355.66
2022-12-05T14:44:36.287Z,101360.16
2022-12-05T14:47:05.708Z,101353.53
2022-12-05T14:49:55.297Z,101352.56
2022-12-05T14:52:25.730Z,101357.22
2022-12-05T14:54:57.133Z,101353.63
2022-12-05T14:57:25.051Z,101354.56
2022-12-05T14:59:55.466Z,101355.66
2022-12-05T15:02:27.168Z,101359.97
2022-12-05T15:04:58.302Z,101357.44
2022-12-05T15:07:35.339Z,101363.72
2022-12-05T15:10:05.939Z,101355.25
2022-12-05T15:12:36.822Z,101352.59
2022-12-05T15:15:13.411Z,101357.94
2022-12-05T15:17:54.134Z,101353.72
2022-12-05T15:20:26.888Z,101353.19
2022-12-05T15:22:54.374Z,101358.78
2022-12-05T15:25:25.843Z,101357.41
2022-12-05T15:27:58.921Z,101356.66
2022-12-05T15:30:27.166Z,101357.03
2022-12-05T15:32:59.441Z,101355.28
2022-12-05T15:35:28.495Z,101359.25
2022-12-05T15:37:58.184Z,101365.91
2022-12-05T15:40:27.788Z,101367.28
2022-12-05T15:42:56.495Z,101362.91
2022-12-05T15:45:25.774Z,101373.81
2022-12-05T15:47:56.739Z,101365.91
2022-12-05T15:50:33.914Z,101371.16
2022-12-05T15:53:04.621Z,101369.69
2022-12-05T15:55:38.072Z,101363.25
2022-12-05T15:58:13.013Z,101368.84
2022-12-05T16:00:42.707Z,101371.50
2022-12-05T16:03:13.548Z,101364.63
2022-12-05T16:05:42.811Z,101367.94
2022-12-05T16:08:10.318Z,101359.22
2022-12-05T16:10:39.616Z,101360.09
2022-12-05T16:13:08.615Z,101358.19
2022-12-05T16:15:36.104Z,101364.72
2022-12-05T16:18:05.895Z,101357.13
2022-12-05T16:20:34.909Z,101355.94
2022-12-05T16:23:04.590Z,101357.41
2022-12-05T16:25:34.639Z,101357.56
2022-12-05T16:28:16.633Z,101359.22
2022-12-05T16:30:54.701Z,101358.28
2022-12-05T16:33:22.468Z,101362.16
2022-12-05T16:35:51.085Z,101367.56
2022-12-05T16:38:21.947Z,101362.06
2022-12-05T16:40:58.179Z,101362.31
2022-12-05T16:43:30.150Z,101361.31
2022-12-05T16:46:00.608Z,101365.69
2022-12-05T16:48:29.011Z,101367.91
2022-12-05T16:51:17.268Z,101362.59
2022-12-05T16:53:46.286Z,101366.00
2022-12-05T16:56:15.937Z,101359.66
2022-12-05T16:58:44.946Z,101357.94
2022-12-05T17:01:17.600Z,101364.81
2022-12-05T17:03:46.103Z,101362.31
2022-12-05T17:06:14.946Z,101362.06
2022-12-05T17:08:42.490Z,101356.28
2022-12-05T17:11:11.611Z,101359.03
2022-12-05T17:13:39.071Z,101359.22
2022-12-05T17:16:08.362Z,101357.75
2022-12-05T17:18:35.906Z,101359.03
2022-12-05T17:21:05.676Z,101357.75
2022-12-05T17:23:33.179Z,101360.16
2022-12-05T17:26:00.853Z,101359.84
2022-12-05T17:28:28.339Z,101357.13
2022-12-05T17:30:55.916Z,101364.72
2022-12-05T17:33:28.008Z,101364.28
2022-12-05T17:35:55.489Z,101359.59
2022-12-05T17:38:22.967Z,101365.91
2022-12-05T17:40:50.570Z,101362.44
2022-12-05T17:43:24.564Z,101359.97
2022-12-05T17:45:54.426Z,101356.47
2022-12-05T17:48:22.239Z,101364.84
2022-12-05T17:50:51.054Z,101363.84
2022-12-05T17:53:20.431Z,101363.84
2022-12-05T17:55:48.594Z,101368.03
2022-12-05T17:58:16.595Z,101358.59
2022-12-05T18:00:45.334Z,101366.22
2022-12-05T18:03:14.441Z,101359.53
2022-12-05T18:05:42.059Z,101362.81
2022-12-05T18:08:11.455Z,101370.34
2022-12-05T18:10:42.188Z,101367.94
2022-12-05T18:13:09.673Z,101373.53
2022-12-05T18:15:42.410Z,101368.97
2022-12-05T18:18:14.004Z,101368.88
2022-12-05T18:20:41.863Z,101379.69
2022-12-05T18:23:10.891Z,101377.41
2022-12-05T18:25:38.466Z,101371.63
2022-12-05T18:28:07.044Z,101372.06
2022-12-05T18:30:34.705Z,101373.53
2022-12-05T18:33:02.161Z,101374.84
2022-12-05T18:35:41.856Z,101376.22
2022-12-05T18:38:11.450Z,101371.28
2022-12-05T18:40:39.063Z,101381.78
2022-12-05T18:43:06.544Z,101379.69
2022-12-05T18:45:34.080Z,101379.06
2022-12-05T18:48:16.294Z,101379.06
2022-12-05T18:50:49.061Z,101392.06
2022-12-05T18:53:18.121Z,101390.97
2022-12-05T18:56:05.242Z,101386.22
2022-12-05T18:58:33.531Z,101385.78
2022-12-05T19:01:09.060Z,101387.59
2022-12-05T19:03:37.243Z,101392.91
2022-12-05T19:06:12.596Z,101388.97
2022-12-05T19:08:41.530Z,101389.91
2022-12-05T19:11:09.129Z,101386.75
2022-12-05T19:13:37.098Z,101385.56
2022-12-05T19:16:04.932Z,101386.31
2022-12-05T19:18:32.423Z,101391.63
2022-12-05T19:21:00.141Z,101381.16
2022-12-05T19:23:27.890Z,101388.16
2022-12-05T19:26:00.531Z,101384.66
2022-12-05T19:28:28.278Z,101380.97
2022-12-05T19:31:02.982Z,101382.28
2022-12-05T19:33:34.194Z,101387.22
2022-12-05T19:36:06.112Z,101380.63
2022-12-05T19:38:34.869Z,101379.44
2022-12-05T19:41:03.809Z,101379.44
2022-12-05T19:43:31.580Z,101375.84
2022-12-05T19:45:59.362Z,101377.88
2022-12-05T19:48:27.254Z,101375.84
2022-12-05T19:50:55.737Z,101380.56
2022-12-05T19:53:23.534Z,101384.00
2022-12-05T19:55:51.272Z,101382.19
2022-12-05T19:58:20.131Z,101377.06
2022-12-05T20:00:47.616Z,101382.38
2022-12-05T20:03:17.788Z,101379.25
2022-12-05T20:05:45.311Z,101387.34
2022-12-05T20:08:12.852Z,101390.69
2022-12-05T20:10:40.745Z,101388.25
2022-12-05T20:13:24.116Z,101384.94
2022-12-05T20:16:03.962Z,101387.25
2022-12-05T20:18:31.523Z,101385.03
2022-12-05T20:20:59.450Z,101376.59
2022-12-05T20:23:27.446Z,101379.72
2022-12-05T20:25:56.390Z,101370.81
2022-12-05T20:28:23.842Z,101376.59
2022-12-05T20:30:51.332Z,101372.56
2022-12-05T20:33:20.123Z,101372.84
2022-12-05T20:35:47.596Z,101366.06
2022-12-05T20:38:15.123Z,101366.34
2022-12-05T20:40:42.572Z,101367.69
2022-12-05T20:43:10.028Z,101373.38
2022-12-05T20:45:37.606Z,101367.44
2022-12-05T20:48:05.435Z,101371.38
2022-12-05T20:50:35.984Z,101370.53
2022-12-05T20:53:04.873Z,101369.69
2022-12-05T20:55:32.332Z,101363.47
2022-12-05T20:58:03.795Z,101357.72
2022-12-05T21:00:32.622Z,101353.19
2022-12-05T21:03:00.121Z,101350.09
2022-12-05T21:05:27.640Z,101352.22
2022-12-05T21:07:56.447Z,101347.34
2022-12-05T21:10:23.943Z,101346.63
2022-12-05T21:12:51.381Z,101350.47
2022-12-05T21:15:18.853Z,101350.47
2022-12-05T21:17:46.307Z,101354.03
2022-12-05T21:20:13.850Z,101342.03
2022-12-05T21:22:41.317Z,101341.66
2022-12-05T21:25:10.196Z,101339.81
2022-12-05T21:27:37.641Z,101338.44
2022-12-05T21:30:05.859Z,101340.47
2022-12-05T21:32:33.279Z,101344.13
2022-12-05T21:35:00.701Z,101339.00
2022-12-05T21:37:28.171Z,101339.09
2022-12-05T21:39:55.836Z,101327.91
2022-12-05T21:42:24.686Z,101327.34
2022-12-05T21:44:52.150Z,101332.22
2022-12-05T21:47:19.587Z,101335.50
2022-12-05T21:49:47.051Z,101323.69
2022-12-05T21:52:14.528Z,101325.88
2022-12-05T21:54:42.128Z,101328.81
2022-12-05T21:57:09.620Z,101323.69
2022-12-05T21:59:38.451Z,101323.56
2022-12-05T22:02:06.181Z,101323.22
2022-12-05T22:04:33.665Z,101323.03
2022-12-05T22:07:01.082Z,101325.88
2022-12-05T22:09:28.554Z,101333.50
2022-12-05T22:11:56.232Z,101325.72
2022-12-05T22:14:23.697Z,101322.03
2022-12-05T22:16:52.494Z,101326.16
2022-12-05T22:19:19.958Z,101319.19
2022-12-05T22:21:47.650Z,101309.94
2022-12-05T22:24:17.144Z,101308.66
2022-12-05T22:26:44.615Z,101309.94
2022-12-05T22:29:12.447Z,101323.22
2022-12-05T22:31:40.036Z,101317.06
2022-12-05T22:34:09.271Z,101321.19
2022-12-05T22:36:36.858Z,101320.84
2022-12-05T22:39:04.557Z,101317.06
2022-12-05T22:41:32.072Z,101309.47
2022-12-05T22:44:00.630Z,101315.44
2022-12-05T22:46:29.469Z,101299.66
2022-12-05T22:48:57.514Z,101305.06
2022-12-05T22:51:27.521Z,101300.31
2022-12-05T22:53:55.300Z,101296.81
2022-12-05T22:56:24.229Z,101305.19
2022-12-05T22:58:54.627Z,101306.56
2022-12-05T23:01:23.721Z,101304.78
2022-12-05T23:03:55.622Z,101300.50
2022-12-05T23:06:23.396Z,101297.84
2022-12-05T23:08:52.604Z,101293.53
2022-12-05T23:11:20.703Z,101298.84
2022-12-05T23:13:49.200Z,101291.69
2022-12-05T23:16:21.136Z,101290.88
2022-12-05T23:18:49.465Z,101292.88
2022-12-05T23:21:18.975Z,101289.41
2022-12-05T23:23:47.081Z,101291.88
2022-12-05T23:26:16.948Z,101283.69
2022-12-05T23:28:44.816Z,101282.91
2022-12-05T23:31:12.918Z,101278.50
2022-12-05T23:33:41.121Z,101277.31
2022-12-05T23:36:10.155Z,101276.00
2022-12-05T23:38:38.896Z,101274.91
2022-12-05T23:41:07.791Z,101275.41
2022-12-05T23:43:37.303Z,101269.25
2022-12-05T23:46:06.195Z,101272.78
2022-12-05T23:48:34.256Z,101262.91
2022-12-05T23:51:04.267Z,101260.34
2022-12-05T23:53:33.347Z,101264.56
2022-12-05T23:56:03.184Z,101260.69
2022-12-05T23:58:31.822Z,101248.81
